createdAt,value
2019-06-26T00:01:46.004Z,101004.69
2019-06-26T00:04:13.546Z,101006.08
2019-06-26T00:06:42.820Z,101010.87
2019-06-26T00:09:10.480Z,101008.14
2019-06-26T00:11:38.722Z,101008.28
2019-06-26T00:14:38.875Z,101000.78
2019-06-26T00:17:07.365Z,101008.23
2019-06-26T00:19:34.842Z,101008.55
2019-06-26T00:22:07.067Z,101003.87
2019-06-26T00:24:34.510Z,100998.54
2019-06-26T00:27:02.038Z,101006.98
2019-06-26T00:29:29.564Z,101004.47
2019-06-26T00:31:57.102Z,101007.21
2019-06-26T00:34:24.671Z,101004.78
2019-06-26T00:36:52.177Z,101003.69
2019-06-26T00:39:19.705Z,101008.71
2019-06-26T00:41:47.828Z,101010.41
2019-06-26T00:44:15.743Z,101008.81
2019-06-26T00:46:43.251Z,101012.32
2019-06-26T00:49:10.838Z,101013.84
2019-06-26T00:51:38.313Z,101008.14
2019-06-26T00:54:05.790Z,101014.27
2019-06-26T00:56:33.305Z,101009.35
2019-06-26T00:59:00.822Z,101014.31
2019-06-26T01:01:28.288Z,101014.11
2019-06-26T01:03:59.100Z,101019.92
2019-06-26T01:06:58.380Z,101017.72
2019-06-26T01:09:25.839Z,101019.58
2019-06-26T01:11:53.373Z,101021.91
2019-06-26T01:14:20.835Z,101021.84
2019-06-26T01:16:48.356Z,101022.27
2019-06-26T01:19:15.841Z,101015.97
2019-06-26T01:21:43.592Z,101023.10
2019-06-26T01:24:11.021Z,101022.19
2019-06-26T01:26:38.662Z,101025.03
2019-06-26T01:29:06.137Z,101029.45
2019-06-26T01:31:33.681Z,101029.77
2019-06-26T01:34:01.305Z,101026.72
2019-06-26T01:36:28.763Z,101026.16
2019-06-26T01:38:56.237Z,101033.76
2019-06-26T01:41:23.739Z,101030.83
2019-06-26T01:43:51.212Z,101028.64
2019-06-26T01:46:18.852Z,101027.04
2019-06-26T01:48:46.361Z,101026.64
2019-06-26T01:51:13.853Z,101026.39
2019-06-26T01:53:41.319Z,101025.23
2019-06-26T01:56:09.072Z,101030.50
2019-06-26T01:58:37.027Z,101028.62
2019-06-26T02:01:04.482Z,101033.00
2019-06-26T02:03:31.993Z,101030.68
2019-06-26T02:05:59.553Z,101034.39
2019-06-26T02:08:27.035Z,101024.63
2019-06-26T02:10:54.501Z,101030.18
2019-06-26T02:13:22.052Z,101025.19
2019-06-26T02:15:49.593Z,101029.95
2019-06-26T02:18:51.841Z,101025.99
2019-06-26T02:21:19.354Z,101026.16
2019-06-26T02:23:46.993Z,101021.55
2019-06-26T02:26:14.539Z,101018.16
2019-06-26T02:28:42.032Z,101022.42
2019-06-26T02:31:10.278Z,101024.78
2019-06-26T02:33:37.923Z,101018.18
2019-06-26T02:36:05.500Z,101019.92
2019-06-26T02:38:33.091Z,101020.51
2019-06-26T02:41:00.588Z,101016.95
2019-06-26T02:43:28.169Z,101022.14
2019-06-26T02:45:55.724Z,101022.93
2019-06-26T02:48:23.233Z,101020.91
2019-06-26T02:50:50.826Z,101020.59
2019-06-26T02:53:18.288Z,101018.66
2019-06-26T02:55:45.746Z,101014.23
2019-06-26T02:58:13.314Z,101023.56
2019-06-26T03:00:40.806Z,101034.03
2019-06-26T03:03:09.826Z,101031.34
2019-06-26T03:05:37.484Z,101033.19
2019-06-26T03:08:05.125Z,101032.53
2019-06-26T03:10:32.605Z,101033.21
2019-06-26T03:13:00.077Z,101030.01
2019-06-26T03:15:27.605Z,101038.06
2019-06-26T03:17:55.936Z,101034.85
2019-06-26T03:20:27.235Z,101035.87
2019-06-26T03:22:54.885Z,101030.48
2019-06-26T03:25:22.475Z,101031.86
2019-06-26T03:27:49.958Z,101035.33
2019-06-26T03:30:17.474Z,101036.16
2019-06-26T03:32:44.963Z,101040.40
2019-06-26T03:35:12.525Z,101045.29
2019-06-26T03:37:39.959Z,101046.50
2019-06-26T03:40:07.853Z,101046.77
2019-06-26T03:42:35.348Z,101048.89
2019-06-26T03:45:03.917Z,101050.65
2019-06-26T03:47:31.569Z,101057.67
2019-06-26T03:49:59.150Z,101053.59
2019-06-26T03:52:26.638Z,101053.50
2019-06-26T03:54:54.164Z,101053.19
2019-06-26T03:57:21.610Z,101056.69
2019-06-26T03:59:52.993Z,101060.46
2019-06-26T04:02:22.349Z,101053.46
2019-06-26T04:04:50.849Z,101059.12
2019-06-26T04:07:19.456Z,101052.59
2019-06-26T04:09:46.965Z,101061.97
2019-06-26T04:12:14.455Z,101060.37
2019-06-26T04:14:42.009Z,101058.69
2019-06-26T04:17:09.586Z,101065.04
2019-06-26T04:19:37.244Z,101062.12
2019-06-26T04:22:04.778Z,101065.45
2019-06-26T04:24:33.414Z,101076.97
2019-06-26T04:27:00.908Z,101078.59
2019-06-26T04:29:28.581Z,101073.27
2019-06-26T04:31:56.068Z,101084.24
2019-06-26T04:34:23.542Z,101073.42
2019-06-26T04:36:51.197Z,101084.42
2019-06-26T04:39:18.688Z,101086.71
2019-06-26T04:41:46.626Z,101088.71
2019-06-26T04:44:14.230Z,101082.88
2019-06-26T04:46:41.748Z,101082.88
2019-06-26T04:49:09.374Z,101079.33
2019-06-26T04:51:37.024Z,101081.06
2019-06-26T04:54:04.709Z,101085.84
2019-06-26T04:56:32.232Z,101080.81
2019-06-26T04:58:59.820Z,101083.22
2019-06-26T05:01:29.475Z,101081.20
2019-06-26T05:03:57.188Z,101082.80
2019-06-26T05:06:24.849Z,101084.40
2019-06-26T05:08:52.309Z,101083.85
2019-06-26T05:11:19.830Z,101081.80
2019-06-26T05:13:48.514Z,101082.66
2019-06-26T05:16:20.168Z,101089.39
2019-06-26T05:18:47.048Z,101079.49
2019-06-26T05:21:14.529Z,101078.59
2019-06-26T05:23:42.068Z,101079.31
2019-06-26T05:26:09.436Z,101082.97
2019-06-26T05:28:36.855Z,101084.22
2019-06-26T05:31:04.202Z,101097.50
2019-06-26T05:33:31.628Z,101099.55
2019-06-26T05:35:59.348Z,101104.17
2019-06-26T05:38:26.725Z,101093.89
2019-06-26T05:40:54.080Z,101102.26
2019-06-26T05:43:21.375Z,101109.06
2019-06-26T05:45:48.763Z,101095.63
2019-06-26T05:48:16.173Z,101107.30
2019-06-26T05:50:43.502Z,101110.95
2019-06-26T05:53:11.166Z,101108.21
2019-06-26T05:55:38.514Z,101117.41
2019-06-26T05:58:06.028Z,101111.55
2019-06-26T06:00:33.749Z,101113.61
2019-06-26T06:03:02.366Z,101116.94
2019-06-26T06:05:32.128Z,101123.78
2019-06-26T06:07:59.512Z,101118.56
2019-06-26T06:10:28.671Z,101128.05
2019-06-26T06:12:56.023Z,101124.59
2019-06-26T06:15:23.384Z,101128.45
2019-06-26T06:17:50.682Z,101127.54
2019-06-26T06:20:27.801Z,101136.88
2019-06-26T06:22:55.466Z,101133.29
2019-06-26T06:25:22.842Z,101132.59
2019-06-26T06:27:50.258Z,101131.87
2019-06-26T06:30:17.693Z,101127.86
2019-06-26T06:32:46.493Z,101137.42
2019-06-26T06:35:13.978Z,101138.09
2019-06-26T06:37:41.567Z,101136.77
2019-06-26T06:40:09.486Z,101141.80
2019-06-26T06:42:36.792Z,101143.62
2019-06-26T06:45:05.228Z,101150.77
2019-06-26T06:47:32.905Z,101152.94
2019-06-26T06:50:00.234Z,101164.01
2019-06-26T06:52:28.056Z,101163.07
2019-06-26T06:54:55.426Z,101173.31
2019-06-26T06:57:25.051Z,101175.25
2019-06-26T06:59:54.496Z,101174.27
2019-06-26T07:02:21.898Z,101177.50
2019-06-26T07:04:49.238Z,101172.16
2019-06-26T07:07:16.588Z,101174.25
2019-06-26T07:09:44.286Z,101180.23
2019-06-26T07:12:11.620Z,101179.11
2019-06-26T07:14:39.016Z,101183.41
2019-06-26T07:17:20.057Z,101183.45
2019-06-26T07:19:36.017Z,101180.35
2019-06-26T07:22:06.978Z,101187.19
2019-06-26T07:24:32.903Z,101187.91
2019-06-26T07:27:00.371Z,101189.84
2019-06-26T07:29:29.897Z,101177.35
2019-06-26T07:31:57.187Z,101184.23
2019-06-26T07:34:25.867Z,101189.02
2019-06-26T07:36:53.386Z,101189.34
2019-06-26T07:39:20.830Z,101193.41
2019-06-26T07:41:48.185Z,101188.14
2019-06-26T07:44:16.185Z,101190.97
2019-06-26T07:46:43.724Z,101197.01
2019-06-26T07:49:10.973Z,101199.19
2019-06-26T07:51:39.363Z,101202.75
2019-06-26T07:54:07.130Z,101202.18
2019-06-26T07:56:34.584Z,101202.59
2019-06-26T07:59:04.265Z,101201.07
2019-06-26T08:01:32.251Z,101211.66
2019-06-26T08:04:00.140Z,101205.84
2019-06-26T08:06:27.458Z,101207.45
2019-06-26T08:08:54.844Z,101206.86
2019-06-26T08:11:22.327Z,101206.80
2019-06-26T08:13:50.383Z,101209.05
2019-06-26T08:16:18.478Z,101209.13
2019-06-26T08:18:45.989Z,101219.13
2019-06-26T08:21:13.576Z,101214.38
2019-06-26T08:23:41.106Z,101217.50
2019-06-26T08:26:08.634Z,101219.00
2019-06-26T08:28:36.162Z,101218.65
2019-06-26T08:31:04.841Z,101217.78
2019-06-26T08:33:32.458Z,101217.72
2019-06-26T08:35:59.961Z,101221.15
2019-06-26T08:38:27.512Z,101212.27
2019-06-26T08:40:55.232Z,101221.18
2019-06-26T08:43:22.810Z,101220.41
2019-06-26T08:45:50.644Z,101220.17
2019-06-26T08:48:37.897Z,101223.81
2019-06-26T08:50:47.777Z,101226.95
2019-06-26T08:53:15.409Z,101231.70
2019-06-26T08:55:49.180Z,101226.28
2019-06-26T08:58:16.796Z,101226.69
2019-06-26T09:00:44.336Z,101226.80
2019-06-26T09:03:12.206Z,101228.20
2019-06-26T09:05:47.960Z,101227.55
2019-06-26T09:08:10.291Z,101227.96
2019-06-26T09:10:38.558Z,101228.76
2019-06-26T09:13:07.254Z,101229.31
2019-06-26T09:15:35.047Z,101227.31
2019-06-26T09:18:04.586Z,101230.36
2019-06-26T09:20:38.579Z,101230.25
2019-06-26T09:23:09.432Z,101236.59
2019-06-26T09:25:36.894Z,101235.50
2019-06-26T09:28:04.835Z,101241.31
2019-06-26T09:30:55.874Z,101241.58
2019-06-26T09:33:23.515Z,101244.78
2019-06-26T09:35:55.134Z,101240.09
2019-06-26T09:38:22.852Z,101246.81
2019-06-26T09:40:50.604Z,101249.52
2019-06-26T09:43:18.961Z,101240.66
2019-06-26T09:45:46.486Z,101240.85
2019-06-26T09:48:15.032Z,101245.89
2019-06-26T09:50:42.647Z,101251.22
2019-06-26T09:53:10.220Z,101252.50
2019-06-26T09:55:44.794Z,101257.57
2019-06-26T09:58:13.557Z,101249.84
2019-06-26T10:00:41.279Z,101253.25
2019-06-26T10:03:09.992Z,101253.87
2019-06-26T10:05:37.483Z,101255.50
2019-06-26T10:08:04.975Z,101252.66
2019-06-26T10:10:32.444Z,101261.84
2019-06-26T10:13:00.038Z,101261.89
2019-06-26T10:15:30.623Z,101262.55
2019-06-26T10:17:58.146Z,101267.51
2019-06-26T10:20:25.713Z,101267.38
2019-06-26T10:22:53.258Z,101262.83
2019-06-26T10:25:20.765Z,101260.08
2019-06-26T10:27:48.319Z,101263.63
2019-06-26T10:30:16.062Z,101264.22
2019-06-26T10:32:43.672Z,101266.33
2019-06-26T10:35:11.444Z,101271.22
2019-06-26T10:37:38.975Z,101273.52
2019-06-26T10:40:08.733Z,101271.55
2019-06-26T10:42:37.443Z,101276.38
2019-06-26T10:45:05.491Z,101278.02
2019-06-26T10:47:33.094Z,101285.48
2019-06-26T10:50:01.087Z,101274.27
2019-06-26T10:52:28.599Z,101280.50
2019-06-26T10:54:57.103Z,101282.20
2019-06-26T10:57:24.735Z,101282.95
2019-06-26T10:59:56.501Z,101281.45
2019-06-26T11:02:26.162Z,101273.68
2019-06-26T11:04:53.695Z,101271.33
2019-06-26T11:07:21.212Z,101272.23
2019-06-26T11:09:48.750Z,101257.72
2019-06-26T11:12:16.259Z,101268.13
2019-06-26T11:14:43.777Z,101270.75
2019-06-26T11:17:11.245Z,101274.37
2019-06-26T11:19:43.900Z,101271.41
2019-06-26T11:22:08.404Z,101269.38
2019-06-26T11:24:35.905Z,101276.55
2019-06-26T11:27:03.502Z,101268.28
2019-06-26T11:29:31.064Z,101266.16
2019-06-26T11:31:58.514Z,101262.14
2019-06-26T11:34:28.108Z,101263.84
2019-06-26T11:37:03.840Z,101260.67
2019-06-26T11:39:25.301Z,101254.37
2019-06-26T11:41:52.751Z,101255.48
2019-06-26T11:44:20.203Z,101258.30
2019-06-26T11:46:48.156Z,101253.23
2019-06-26T11:49:15.734Z,101258.42
2019-06-26T11:51:43.239Z,101255.36
2019-06-26T11:54:10.744Z,101262.44
2019-06-26T11:56:38.418Z,101262.61
2019-06-26T11:59:07.174Z,101243.99
2019-06-26T12:01:34.736Z,101257.11
2019-06-26T12:04:05.706Z,101255.30
2019-06-26T12:06:33.160Z,101250.19
2019-06-26T12:09:01.824Z,101243.55
2019-06-26T12:11:31.252Z,101240.66
2019-06-26T12:13:58.823Z,101242.95
2019-06-26T12:16:26.421Z,101243.11
2019-06-26T12:18:54.116Z,101233.45
2019-06-26T12:21:22.686Z,101236.61
2019-06-26T12:23:50.240Z,101241.89
2019-06-26T12:26:17.694Z,101239.84
2019-06-26T12:28:46.284Z,101233.86
2019-06-26T12:31:13.877Z,101236.55
2019-06-26T12:33:41.469Z,101231.52
2019-06-26T12:36:09.631Z,101227.76
2019-06-26T12:38:39.390Z,101223.32
2019-06-26T12:41:06.995Z,101230.30
2019-06-26T12:43:34.534Z,101221.11
2019-06-26T12:46:01.914Z,101221.47
2019-06-26T12:48:29.403Z,101229.89
2019-06-26T12:50:58.164Z,101215.17
2019-06-26T12:53:25.611Z,101221.00
2019-06-26T12:55:53.068Z,101223.67
2019-06-26T12:58:20.624Z,101222.02
2019-06-26T13:00:49.243Z,101228.89
2019-06-26T13:03:16.970Z,101236.54
2019-06-26T13:05:44.452Z,101220.75
2019-06-26T13:08:11.911Z,101228.97
2019-06-26T13:10:49.409Z,101219.33
2019-06-26T13:13:10.472Z,101225.52
2019-06-26T13:15:38.344Z,101226.01
2019-06-26T13:18:06.428Z,101225.61
2019-06-26T13:20:47.990Z,101230.53
2019-06-26T13:23:04.739Z,101218.51
2019-06-26T13:25:32.219Z,101215.18
2019-06-26T13:27:59.704Z,101214.60
2019-06-26T13:30:34.893Z,101213.83
2019-06-26T13:33:02.585Z,101216.48
2019-06-26T13:35:30.115Z,101220.00
2019-06-26T13:37:57.655Z,101207.16
2019-06-26T13:40:25.234Z,101219.99
2019-06-26T13:42:52.779Z,101210.80
2019-06-26T13:45:21.389Z,101214.31
2019-06-26T13:47:48.906Z,101221.95
2019-06-26T13:50:16.725Z,101220.37
2019-06-26T13:52:44.248Z,101211.50
2019-06-26T13:55:11.802Z,101205.94
2019-06-26T13:57:39.371Z,101207.70
2019-06-26T14:00:13.969Z,101208.46
2019-06-26T14:02:41.584Z,101203.51
2019-06-26T14:05:09.640Z,101197.18
2019-06-26T14:07:37.162Z,101190.97
2019-06-26T14:10:07.947Z,101205.33
2019-06-26T14:12:34.899Z,101205.63
2019-06-26T14:15:02.824Z,101205.52
2019-06-26T14:17:30.443Z,101195.63
2019-06-26T14:19:58.024Z,101198.23
2019-06-26T14:22:25.631Z,101203.03
2019-06-26T14:24:54.332Z,101199.33
2019-06-26T14:27:24.958Z,101199.87
2019-06-26T14:29:52.558Z,101201.78
2019-06-26T14:32:20.116Z,101203.27
2019-06-26T14:34:47.590Z,101191.06
2019-06-26T14:37:15.152Z,101191.66
2019-06-26T14:39:42.633Z,101192.77
2019-06-26T14:42:10.152Z,101195.81
2019-06-26T14:44:37.650Z,101201.94
2019-06-26T14:47:05.253Z,101202.77
2019-06-26T14:49:33.474Z,101193.75
2019-06-26T14:52:01.156Z,101203.08
2019-06-26T14:54:28.814Z,101201.30
2019-06-26T14:56:56.386Z,101198.68
2019-06-26T14:59:23.939Z,101206.15
2019-06-26T15:01:53.406Z,101204.17
2019-06-26T15:04:21.054Z,101210.73
2019-06-26T15:07:11.810Z,101214.98
2019-06-26T15:09:37.093Z,101212.31
2019-06-26T15:12:04.775Z,101200.13
2019-06-26T15:14:33.369Z,101218.16
2019-06-26T15:17:00.866Z,101214.35
2019-06-26T15:19:28.804Z,101214.41
2019-06-26T15:21:58.843Z,101212.86
2019-06-26T15:24:25.638Z,101214.91
2019-06-26T15:26:53.101Z,101219.01
2019-06-26T15:29:20.708Z,101216.31
2019-06-26T15:31:48.221Z,101209.51
2019-06-26T15:34:15.765Z,101214.00
2019-06-26T15:36:43.470Z,101211.59
2019-06-26T15:39:11.517Z,101211.69
2019-06-26T15:41:39.080Z,101199.72
2019-06-26T15:44:06.722Z,101219.23
2019-06-26T15:46:34.364Z,101227.47
2019-06-26T15:49:01.965Z,101233.01
2019-06-26T15:51:29.562Z,101226.72
2019-06-26T15:53:59.983Z,101227.71
2019-06-26T15:56:26.437Z,101236.48
2019-06-26T15:58:54.059Z,101229.78
2019-06-26T16:01:21.629Z,101232.88
2019-06-26T16:03:49.146Z,101244.17
2019-06-26T16:06:16.811Z,101243.56
2019-06-26T16:08:44.366Z,101245.06
2019-06-26T16:11:12.315Z,101239.28
2019-06-26T16:13:39.983Z,101242.63
2019-06-26T16:16:07.520Z,101238.91
2019-06-26T16:18:42.926Z,101246.94
2019-06-26T16:21:10.223Z,101242.77
2019-06-26T16:23:37.717Z,101246.58
2019-06-26T16:26:05.287Z,101241.11
2019-06-26T16:28:32.857Z,101245.22
2019-06-26T16:31:00.822Z,101246.36
2019-06-26T16:33:28.441Z,101241.84
2019-06-26T16:35:56.048Z,101247.94
2019-06-26T16:38:23.551Z,101249.70
2019-06-26T16:40:51.064Z,101253.03
2019-06-26T16:43:19.520Z,101259.78
2019-06-26T16:45:48.153Z,101256.73
2019-06-26T16:48:16.614Z,101263.06
2019-06-26T16:50:47.402Z,101266.04
2019-06-26T16:53:24.012Z,101265.88
2019-06-26T16:56:01.346Z,101269.02
2019-06-26T16:58:31.442Z,101270.63
2019-06-26T17:01:09.912Z,101273.09
2019-06-26T17:03:46.652Z,101278.98
2019-06-26T17:06:17.189Z,101278.01
2019-06-26T17:08:52.418Z,101271.42
2019-06-26T17:11:21.476Z,101284.55
2019-06-26T17:13:58.928Z,101286.94
2019-06-26T17:16:26.677Z,101294.05
2019-06-26T17:19:02.153Z,101293.98
2019-06-26T17:21:39.313Z,101291.28
2019-06-26T17:24:08.977Z,101298.17
2019-06-26T17:26:36.541Z,101291.81
2019-06-26T17:29:04.139Z,101293.16
2019-06-26T17:31:31.708Z,101300.38
2019-06-26T17:33:59.379Z,101300.44
2019-06-26T17:36:28.856Z,101312.97
2019-06-26T17:38:57.125Z,101314.80
2019-06-26T17:41:24.649Z,101317.66
2019-06-26T17:43:54.437Z,101312.86
2019-06-26T17:46:24.597Z,101318.88
2019-06-26T17:48:53.618Z,101320.80
2019-06-26T17:51:24.268Z,101314.37
2019-06-26T18:02:27.144Z,101327.97
2019-06-26T18:04:54.312Z,101334.72
2019-06-26T18:07:27.392Z,101338.37
2019-06-26T18:09:54.980Z,101335.91
2019-06-26T18:12:22.679Z,101333.81
2019-06-26T18:14:50.337Z,101346.05
2019-06-26T18:17:22.128Z,101349.23
2019-06-26T18:19:47.321Z,101352.39
2019-06-26T18:22:17.321Z,101364.24
2019-06-26T18:24:44.798Z,101360.53
2019-06-26T18:27:14.263Z,101361.23
2019-06-26T18:29:41.764Z,101365.39
2019-06-26T18:32:09.338Z,101360.94
2019-06-26T18:34:36.897Z,101370.25
2019-06-26T18:37:04.479Z,101370.17
2019-06-26T18:39:32.007Z,101365.25
2019-06-26T18:41:59.501Z,101371.98
2019-06-26T18:44:26.969Z,101370.84
2019-06-26T18:46:54.407Z,101364.30
2019-06-26T18:49:21.964Z,101373.19
2019-06-26T18:51:49.524Z,101377.20
2019-06-26T18:54:16.979Z,101371.55
2019-06-26T18:56:44.678Z,101377.33
2019-06-26T18:59:12.892Z,101380.08
2019-06-26T19:01:40.477Z,101381.25
2019-06-26T19:04:08.293Z,101385.34
2019-06-26T19:06:35.778Z,101388.44
2019-06-26T19:09:05.352Z,101404.03
2019-06-26T19:11:34.381Z,101404.42
2019-06-26T19:14:01.991Z,101408.66
2019-06-26T19:16:29.499Z,101404.91
2019-06-26T19:18:58.772Z,101399.13
2019-06-26T19:21:26.717Z,101403.25
2019-06-26T19:24:09.058Z,101412.77
2019-06-26T19:26:23.655Z,101423.06
2019-06-26T19:28:51.130Z,101422.14
2019-06-26T19:31:19.381Z,101437.70
2019-06-26T19:33:46.940Z,101442.82
2019-06-26T19:36:14.387Z,101443.66
2019-06-26T19:38:42.110Z,101459.05
2019-06-26T19:41:09.604Z,101457.68
2019-06-26T19:43:37.079Z,101460.70
2019-06-26T19:46:05.929Z,101462.69
2019-06-26T19:48:35.243Z,101462.86
2019-06-26T19:51:05.539Z,101455.17
2019-06-26T19:53:32.505Z,101462.34
2019-06-26T19:56:00.077Z,101467.55
2019-06-26T19:58:29.075Z,101464.03
2019-06-26T20:00:56.551Z,101461.98
2019-06-26T20:03:24.209Z,101474.95
2019-06-26T20:05:51.767Z,101474.71
2019-06-26T20:08:19.259Z,101481.17
2019-06-26T20:10:46.745Z,101475.89
2019-06-26T20:13:14.565Z,101488.81
2019-06-26T20:15:43.154Z,101496.54
2019-06-26T20:18:10.703Z,101492.16
2019-06-26T20:20:38.263Z,101496.92
2019-06-26T20:23:05.821Z,101499.80
2019-06-26T20:25:33.291Z,101508.48
2019-06-26T20:28:02.266Z,101513.23
2019-06-26T20:30:31.838Z,101516.62
2019-06-26T20:32:59.316Z,101514.79
2019-06-26T20:35:26.988Z,101514.09
2019-06-26T20:37:54.562Z,101510.49
2019-06-26T20:40:22.252Z,101512.77
2019-06-26T20:42:49.758Z,101514.87
2019-06-26T20:45:17.311Z,101523.45
2019-06-26T20:47:44.933Z,101524.41
2019-06-26T20:50:12.599Z,101531.07
2019-06-26T20:52:40.111Z,101523.56
2019-06-26T20:55:07.693Z,101538.63
2019-06-26T20:57:35.220Z,101538.20
2019-06-26T21:00:04.586Z,101539.55
2019-06-26T21:02:33.962Z,101543.38
2019-06-26T21:05:01.607Z,101540.31
2019-06-26T21:07:29.193Z,101545.73
2019-06-26T21:09:58.383Z,101552.96
2019-06-26T21:12:25.898Z,101551.94
2019-06-26T21:14:53.274Z,101559.13
2019-06-26T21:17:20.817Z,101564.36
2019-06-26T21:19:48.466Z,101565.86
2019-06-26T21:22:15.956Z,101570.32
2019-06-26T21:24:43.528Z,101570.41
2019-06-26T21:27:11.055Z,101576.23
2019-06-26T21:29:38.657Z,101578.55
2019-06-26T21:32:06.165Z,101587.70
2019-06-26T21:34:33.654Z,101589.92
2019-06-26T21:37:01.179Z,101590.13
2019-06-26T21:39:29.016Z,101595.17
2019-06-26T21:41:56.630Z,101610.41
2019-06-26T21:44:24.116Z,101608.80
2019-06-26T21:46:51.659Z,101609.31
2019-06-26T21:49:19.925Z,101611.76
2019-06-26T21:51:48.748Z,101609.30
2019-06-26T21:54:16.351Z,101621.02
2019-06-26T21:57:08.263Z,101622.34
2019-06-26T21:59:53.412Z,101619.07
2019-06-26T22:02:39.530Z,101620.70
2019-06-26T22:05:08.673Z,101627.72
2019-06-26T22:07:40.678Z,101620.50
2019-06-26T22:10:16.038Z,101627.34
2019-06-26T22:12:44.701Z,101625.48
2019-06-26T22:15:14.572Z,101624.72
2019-06-26T22:17:42.402Z,101628.82
2019-06-26T22:20:12.705Z,101631.17
2019-06-26T22:22:39.580Z,101633.84
2019-06-26T22:25:07.658Z,101628.66
2019-06-26T22:27:35.192Z,101629.83
2019-06-26T22:30:02.808Z,101645.34
2019-06-26T22:32:32.750Z,101644.34
2019-06-26T22:35:00.244Z,101643.27
2019-06-26T22:37:27.710Z,101643.89
2019-06-26T22:39:55.184Z,101649.00
2019-06-26T22:42:22.793Z,101648.17
2019-06-26T22:44:50.278Z,101651.44
2019-06-26T22:47:17.821Z,101646.47
2019-06-26T22:49:45.288Z,101650.87
2019-06-26T22:52:12.824Z,101648.03
2019-06-26T22:54:40.269Z,101647.13
2019-06-26T22:57:07.750Z,101646.38
2019-06-26T22:59:35.206Z,101648.48
2019-06-26T23:02:02.803Z,101647.34
2019-06-26T23:04:33.150Z,101654.75
2019-06-26T23:09:53.357Z,101651.75
2019-06-26T23:12:21.074Z,101657.47
2019-06-26T23:14:48.539Z,101658.53
2019-06-26T23:17:19.049Z,101656.48
2019-06-26T23:19:46.401Z,101656.61
2019-06-26T23:22:13.887Z,101657.05
2019-06-26T23:24:41.450Z,101658.67
2019-06-26T23:27:09.064Z,101665.42
2019-06-26T23:29:36.594Z,101661.91
2019-06-26T23:32:04.078Z,101667.03
2019-06-26T23:34:34.023Z,101659.67
2019-06-26T23:37:02.738Z,101665.41
2019-06-26T23:39:30.216Z,101667.16
2019-06-26T23:41:57.680Z,101674.05
2019-06-26T23:44:25.316Z,101675.33
2019-06-26T23:47:12.240Z,101675.39
2019-06-26T23:49:43.032Z,101671.88
2019-06-26T23:52:10.501Z,101671.58
2019-06-26T23:54:38.082Z,101668.75
2019-06-26T23:57:05.557Z,101669.05
2019-06-26T23:59:38.196Z,101666.58
